Latest Coastal Weather Observations for Cape Grim

IDT60701

Issued at 5:42 pm EDT Saturday 29 February 2020 (issued every 10 minutes, with the page automatically refreshed every 10 minutes)

About coastal observations | Map of coastal stations | Coastal observations for TAS | Marine services | Other Formats
Station Details ID: 091331 Name: CAPE GRIM Lat: -40.68 Lon: 144.69 Height: 86.0 m
Data from the previous 72 hours. | See also: Recent months at Cape Grim
Date/Time
EDT
Wind Sea
Height
m
Swell Vis
km
Cloud Weather Temp
°C
Press
hPa
Rain since
9am
mm
Dir  Spd
kts
Gust
kts
Height
m
Period
s
Dir
29/05:30pm W 11 17 - - - - - Partly cloudy - 16.3 1012.5 0.0
29/05:00pm W 10 15 - - - - - Partly cloudy - 16.9 1012.5 0.0
29/04:30pm W 11 15 - - - - - Partly cloudy - 16.1 1012.7 0.0
29/04:00pm W 12 16 - - - - - Partly cloudy - 17.1 1012.9 0.0
29/03:30pm W 12 17 - - - - - Partly cloudy - 16.6 1013.3 0.0
29/03:00pm W 10 14 - - - - - Cloudy - 15.6 1013.5 0.0
29/02:30pm W 11 16 - - - - - Partly cloudy - 16.1 1013.8 0.0
29/02:00pm W 11 17 - - - - - Partly cloudy - 16.6 1014.0 0.0
29/01:30pm W 11 16 - - - - - Cloudy - 17.2 1014.0 0.0
29/01:00pm W 12 16 - - - - - Partly cloudy - 16.4 1014.1 0.0
29/12:30pm W 10 14 - - - - - Partly cloudy - 16.3 1014.3 0.0
29/12:00pm W 12 16 - - - - - Cloudy - 16.8 1014.4 0.0
29/11:30am W 13 16 - - - - - Partly cloudy - 16.9 1014.5 0.0
29/11:16am W 13 19 - - - - - Partly cloudy - 16.3 1014.5 0.0
29/11:11am W 13 18 - - - - - Partly cloudy - 16.8 1014.5 0.0
29/11:00am W 13 18 - - - - - Cloudy - 16.3 1014.5 0.0
29/10:51am W 11 16 - - - - - Partly cloudy - 17.2 1014.4 0.0
29/10:30am W 13 17 - - - - - Cloudy - 16.3 1014.4 0.0
29/10:00am W 12 17 - - - - - Partly cloudy - 15.2 1014.2 0.0
29/09:54am W 13 17 - - - - - Cloudy - 15.2 1014.2 0.0
29/09:30am W 12 18 - - - - - Partly cloudy - 14.3 1014.2 0.0
29/09:00am W 13 20 - - - - - Cloudy Rain 14.5 1014.2 0.4
29/08:30am W 13 19 - - - - - Partly cloudy - 14.6 1014.0 0.2
29/08:00am W 13 18 - - - - - Partly cloudy - 14.7 1014.0 0.2
29/07:56am W 12 18 - - - - - Partly cloudy - 14.8 1013.9 0.2
29/07:47am W 12 17 - - - - - Partly cloudy - 14.9 1013.8 0.2
29/07:30am W 15 19 - - - - - Partly cloudy - 14.5 1013.7 0.2
29/07:10am W 13 19 - - - - - Partly cloudy - 14.6 1013.4 0.2
29/07:07am W 13 19 - - - - - Partly cloudy - 14.6 1013.5 0.2
29/07:00am W 13 17 - - - - - Partly cloudy - 14.2 1013.4 0.2
29/06:30am W 14 20 - - - - - Partly cloudy - 14.0 1013.2 0.2
29/06:09am W 13 18 - - - - - Partly cloudy - 14.3 1013.2 0.2
29/06:08am W 12 18 - - - - - Partly cloudy - 14.2 1013.2 0.2
29/06:00am W 12 16 - - - - - Cloudy - 14.4 1013.2 0.2
29/05:30am W 13 18 - - - - - Cloudy - 14.4 1013.2 0.2
29/05:19am W 12 18 - - - - - Cloudy - 14.3 1013.2 0.2
29/05:00am W 13 19 - - - - - Cloudy - 14.2 1013.0 0.2
29/04:59am W 13 19 - - - - - Cloudy - 14.2 1013.1 0.2
29/04:31am WNW 14 21 - - - - - Cloudy - 13.7 1013.3 0.2
29/04:30am WNW 14 21 - - - - - Partly cloudy - 13.7 1013.3 0.2
29/04:00am WNW 16 21 - - - - - Partly cloudy - 14.0 1013.6 0.2
29/03:44am W 11 16 - - - - - Partly cloudy - 13.7 1013.7 0.2
29/03:30am W 15 21 - - - - - Partly cloudy - 13.5 1013.7 0.2
29/03:09am WNW 14 18 - - - - - Partly cloudy - 13.7 1013.7 0.2
29/03:00am WNW 14 18 - - - - - Cloudy - 14.0 1013.7 0.0
29/02:39am W 14 19 - - - - - Partly cloudy - 13.9 1013.8 0.0
29/02:30am W 13 18 - - - - - Partly cloudy - 13.7 1014.0 0.0
29/02:17am W 13 18 - - - - - Partly cloudy - 14.0 1014.0 0.0
29/02:00am W 11 16 - - - - - Partly cloudy - 14.5 1014.2 0.0
29/01:30am W 13 19 - - - - - Cloudy - 14.6 1014.2 0.0
29/01:00am W 12 18 - - - - - Cloudy - 14.6 1014.0 0.0
29/12:30am W 10 16 - - - - - Partly cloudy - 14.4 1014.1 0.0
29/12:00am W 7 13 - - - - - Cloudy - 14.0 1014.2 0.0
 
Date/Time
EDT
Wind Sea
Height
m
Swell Vis
km
Cloud Weather Temp
°C
Press
hPa
Rain since
9am
mm
Dir  Spd
kts
Gust
kts
Height
m
Period
s
Dir
28/11:30pm WSW 7 12 - - - - - Partly cloudy - 13.5 1014.3 0.0
28/11:25pm WSW 7 12 - - - - - Partly cloudy - 13.6 1014.3 0.0
28/11:15pm W 11 18 - - - - - Partly cloudy - 13.5 1014.4 0.0
28/11:00pm W 11 21 - - - - - Cloudy - 14.4 1014.4 0.0
28/10:30pm WSW 9 15 - - - - - Cloudy - 14.2 1014.4 0.0
28/10:00pm WSW 11 19 - - - - - Cloudy - 14.3 1014.6 0.0
28/09:30pm W 12 22 - - - - - Cloudy - 14.3 1014.3 0.0
28/09:00pm WSW 13 21 - - - - - Cloudy - 14.5 1014.1 0.0
28/08:30pm W 12 20 - - - - - Cloudy - 14.5 1013.6 0.0
28/08:00pm WSW 10 21 - - - - - Partly cloudy - 14.2 1013.3 0.0
28/07:30pm WSW 11 20 - - - - - Partly cloudy - 14.1 1013.1 0.0
28/07:00pm SW 12 18 - - - - - Partly cloudy - 14.0 1013.2 0.0
28/06:59pm SW 12 19 - - - - - Partly cloudy - 14.0 1013.2 0.0
28/06:30pm SW 14 21 - - - - - Partly cloudy - 14.1 1013.0 0.0
28/06:26pm WSW 13 20 - - - - - Partly cloudy - 14.1 1012.9 0.0
28/06:02pm W 13 19 - - - - - Partly cloudy - 14.4 1012.9 0.0
28/06:00pm W 13 19 - - - - - Cloudy - 14.5 1012.9 0.0
28/05:30pm W 10 16 - - - - - Partly cloudy - 14.7 1012.8 0.0
28/05:00pm SW 10 17 - - - - - Partly cloudy - 14.1 1012.8 0.0
28/04:40pm WSW 12 21 - - - - - Partly cloudy - 14.5 1012.7 0.0
28/04:30pm W 13 19 - - - - - Partly cloudy - 15.3 1012.6 0.0
28/04:00pm W 11 16 - - - - - Partly cloudy - 16.1 1012.8 0.0
28/03:30pm W 11 17 - - - - - Cloudy - 15.3 1012.9 0.0
28/03:00pm W 11 15 - - - - - Cloudy - 15.5 1013.1 0.0
28/02:30pm WSW 8 12 - - - - - Partly cloudy - 14.7 1013.2 0.0
28/02:00pm SW 11 15 - - - - - - - 14.4 1013.2 0.0
28/01:30pm SW 16 19 - - - - - Partly cloudy - 15.6 1013.3 0.0
28/01:00pm SW 15 21 - - - - - Partly cloudy - 15.1 1013.2 0.0
28/12:30pm SW 17 21 - - - - - Partly cloudy - 14.4 1013.4 0.0
28/12:01pm SW 15 25 - - - - - Partly cloudy - 15.0 1013.2 0.0
28/12:00pm SW 14 22 - - - - - Partly cloudy - 15.7 1013.1 0.0
28/11:30am WSW 11 23 - - - - - Partly cloudy - 15.0 1012.8 0.0
28/11:00am WSW 13 22 - - - - - Partly cloudy - 14.6 1012.4 0.0
28/10:30am SW 15 25 - - - - - Partly cloudy - 14.0 1012.1 0.0
28/10:00am SW 19 24 - - - - - Partly cloudy - 12.6 1011.7 0.0
28/09:30am SW 14 22 - - - - - Partly cloudy - 14.1 1011.1 0.0
28/09:00am WSW 13 22 - - - - - Cloudy - 13.4 1010.8 3.0
28/08:38am SW 16 26 - - - - - Partly cloudy - 13.5 1010.6 3.0
28/08:30am SW 19 26 - - - - - Partly cloudy - 13.4 1010.5 3.0
28/08:03am SW 21 33 - - - - - Partly cloudy - 13.0 1010.2 3.0
28/08:00am SW 19 26 - - - - - Partly cloudy - 12.9 1010.2 3.0
28/07:37am SW 21 32 - - - - - Partly cloudy - 13.8 1009.6 3.0
28/07:30am SW 22 30 - - - - - Partly cloudy - 13.7 1009.5 3.0
28/07:00am SW 22 33 - - - - - Partly cloudy - 13.4 1009.1 3.0
28/06:30am SW 24 35 - - - - - Partly cloudy - 13.0 1008.5 3.0
28/06:26am SW 25 35 - - - - - Partly cloudy - 13.1 1008.4 3.0
28/06:08am SW 26 37 - - - - - Partly cloudy - 13.2 1008.2 3.0
28/06:00am SW 22 32 - - - - - Partly cloudy - 13.4 1008.0 3.0
28/05:30am SW 23 33 - - - - - Partly cloudy - 13.3 1007.5 3.0
28/05:00am SW 28 34 - - - - - Partly cloudy - 13.5 1007.3 3.0
28/04:36am SW 26 36 - - - - - Partly cloudy - 12.8 1007.0 3.0
28/04:30am SW 24 33 - - - - - Partly cloudy - 13.2 1006.9 3.0
28/04:00am SW 24 35 - - - - - Partly cloudy - 13.7 1006.6 3.0
28/03:30am SW 26 37 - - - - - - - 13.5 1006.5 3.0
28/03:00am SW 27 37 - - - - - Partly cloudy - 12.8 1006.5 3.0
28/02:45am SW 32 43 - - - - - Partly cloudy - 12.7 1006.5 3.0
28/02:40am SW 29 43 - - - - - Partly cloudy - 12.7 1006.6 3.0
28/02:30am SW 25 40 - - - - - Partly cloudy - 13.0 1006.4 3.0
28/02:03am SW 27 37 - - - - - Partly cloudy - 12.5 1006.5 3.0
28/02:00am SW 30 38 - - - - - Partly cloudy - 12.2 1006.5 3.0
28/01:30am SW 25 39 - - - - - Partly cloudy - 13.3 1006.4 2.2
28/01:19am SW 27 41 - - - - - Partly cloudy - 13.3 1006.5 2.2
28/01:00am WSW 19 35 - - - - - Partly cloudy - 12.9 1006.2 2.2
28/12:53am WSW 19 34 - - - - - Partly cloudy - 12.6 1006.1 2.2
28/12:30am SW 26 38 - - - - - Partly cloudy - 12.9 1006.4 2.2
28/12:22am SW 28 38 - - - - - Partly cloudy - 12.8 1006.4 2.2
28/12:10am SW 29 43 - - - - - Partly cloudy - 12.7 1006.4 2.2
28/12:00am WSW 23 37 - - - - - Mostly cloudy Recent precip. 13.6 1005.8 2.2
 
Date/Time
EDT
Wind Sea
Height
m
Swell Vis
km
Cloud Weather Temp
°C
Press
hPa
Rain since
9am
mm
Dir  Spd
kts
Gust
kts
Height
m
Period
s
Dir
27/11:30pm SW 28 43 - - - - - Partly cloudy - 13.3 1005.9 2.0
27/11:15pm WSW 22 45 - - - - - Partly cloudy - 13.2 1005.9 2.0
27/11:12pm W 19 45 - - - - - Partly cloudy - 13.9 1005.8 2.0
27/11:00pm WSW 19 34 - - - - - Partly cloudy - 13.6 1005.9 2.0
27/10:30pm WSW 19 33 - - - - - Partly cloudy - 12.6 1006.1 1.8
27/10:02pm WSW 22 37 - - - - - Partly cloudy - 12.7 1006.0 1.8
27/10:00pm WSW 21 37 - - - - - Partly cloudy - 13.2 1006.0 1.8
27/09:30pm W 20 31 - - - - - Partly cloudy - 13.2 1005.6 1.6
27/09:00pm WSW 21 36 - - - - - Cloudy - 13.6 1005.2 1.6
27/08:30pm WSW 19 32 - - - - - Partly cloudy - 13.9 1004.9 1.6
27/08:00pm WSW 20 40 - - - - - Partly cloudy - 13.8 1004.7 1.6
27/07:51pm WSW 24 40 - - - - - Partly cloudy - 13.9 1004.6 1.6
27/07:50pm WSW 24 40 - - - - - Partly cloudy - 14.4 1004.6 1.6
27/07:41pm WSW 19 35 - - - - - Partly cloudy - 14.1 1004.6 1.6
27/07:30pm W 23 36 - - - - - Partly cloudy - 14.5 1004.4 1.6
27/07:00pm WSW 19 36 - - - - - Partly cloudy - 14.1 1004.6 1.6
27/06:30pm W 21 32 - - - - - Partly cloudy - 13.9 1004.5 1.6
27/06:00pm WSW 21 38 - - - - - Cloudy Rain 13.1 1004.3 1.6
27/05:30pm WSW 21 34 - - - - - Partly cloudy - 14.3 1004.3 1.4
27/05:27pm WSW 20 34 - - - - - Partly cloudy - 13.7 1004.2 1.4
27/05:04pm WSW 21 33 - - - - - Partly cloudy - 14.0 1003.9 1.4
27/05:00pm W 20 33 - - - - - Partly cloudy - 14.0 1003.9 1.4
27/04:30pm WSW 20 34 - - - - - Partly cloudy - 14.5 1004.1 1.4
27/04:00pm W 23 38 - - - - - Partly cloudy - 14.1 1004.0 1.4
27/03:30pm W 22 35 - - - - - Partly cloudy - 13.7 1004.2 1.2
27/03:01pm W 24 34 - - - - - Partly cloudy - 14.3 1004.2 1.2
27/03:00pm W 25 34 - - - - - Mostly cloudy Recent precip. 14.1 1004.2 1.2
27/02:30pm W 28 39 - - - - - Partly cloudy - 14.7 1004.3 0.4
27/02:00pm W 31 41 - - - - - Partly cloudy - 16.1 1004.4 0.4
27/01:51pm W 28 39 - - - - - Partly cloudy - 16.4 1004.3 0.4
27/01:30pm W 29 38 - - - - - Partly cloudy - 16.3 1004.3 0.4
27/01:00pm W 26 36 - - - - - Partly cloudy - 16.5 1005.1 0.4
27/12:30pm W 29 45 - - - - - Partly cloudy - 14.2 1005.4 0.4
27/12:00pm W 25 36 - - - - - Cloudy Recent precip. 15.0 1005.6 0.4
27/11:30am W 29 39 - - - - - Partly cloudy - 15.2 1006.5 0.2
27/11:09am WNW 24 35 - - - - - Partly cloudy - 15.1 1005.7 0.2
27/11:00am WNW 26 31 - - - - - Partly cloudy - 15.0 1005.7 0.2
27/10:30am W 29 41 - - - - - Partly cloudy - 12.9 1006.1 0.2
27/10:00am W 25 36 - - - - - Partly cloudy - 13.7 1006.2 0.0
27/09:57am W 25 36 - - - - - Partly cloudy - 13.8 1006.2 0.0
27/09:30am W 26 34 - - - - - Partly cloudy - 14.9 1006.2 0.0
27/09:11am W 27 37 - - - - - Partly cloudy - 14.8 1006.2 0.0
27/09:00am W 28 37 - - - - - Mostly cloudy - 14.8 1006.2 1.4
27/08:44am W 26 36 - - - - - Partly cloudy - 14.3 1006.2 1.4
27/08:30am W 25 34 - - - - - Partly cloudy - 14.3 1006.3 1.4
27/08:03am W 22 32 - - - - - Cloudy - 14.4 1006.2 1.4
27/08:00am W 23 31 - - - - - Cloudy - 14.4 1006.2 1.4
27/07:30am W 19 32 - - - - - Partly cloudy - 13.2 1006.2 1.4
27/07:07am W 23 35 - - - - - Partly cloudy - 14.2 1006.1 1.4
27/07:00am W 21 30 - - - - - Cloudy - 14.2 1006.0 1.4
27/06:30am W 22 32 - - - - - Partly cloudy - 13.9 1005.9 1.4
27/06:10am W 26 36 - - - - - Partly cloudy - 13.9 1006.1 1.4
27/06:00am W 23 32 - - - - - Cloudy - 14.0 1006.1 1.4
27/05:30am W 24 37 - - - - - Partly cloudy - 14.1 1006.2 1.4
27/05:00am W 23 35 - - - - - Partly cloudy - 13.3 1006.6 1.4
27/04:30am W 22 38 - - - - - Partly cloudy - 13.8 1006.8 1.4
27/04:00am W 21 31 - - - - - Partly cloudy - 13.8 1007.0 1.4
27/03:30am W 24 34 - - - - - Partly cloudy - 13.6 1007.2 1.4
27/03:01am W 22 32 - - - - - Partly cloudy - 13.9 1007.4 1.4
27/03:00am W 22 29 - - - - - Mostly cloudy - 13.9 1007.4 1.4
27/02:30am W 22 32 - - - - - Partly cloudy - 13.7 1007.8 1.4
27/02:00am W 21 32 - - - - - Partly cloudy - 13.3 1008.3 1.4
27/01:30am W 19 29 - - - - - Partly cloudy - 13.5 1008.6 1.4
27/01:01am W 17 29 - - - - - Partly cloudy - 12.8 1008.8 1.4
27/01:00am W 17 26 - - - - - Partly cloudy - 13.0 1008.9 1.4
27/12:38am W 18 28 - - - - - Partly cloudy - 13.6 1009.0 1.4
27/12:30am W 20 26 - - - - - Partly cloudy - 13.3 1009.1 1.4
27/12:11am W 18 28 - - - - - Partly cloudy - 13.8 1009.1 1.4
27/12:00am W 17 26 - - - - - Mostly clear - 13.6 1009.2 1.4
 
Date/Time
EDT
Wind Sea
Height
m
Swell Vis
km
Cloud Weather Temp
°C
Press
hPa
Rain since
9am
mm
Dir  Spd
kts
Gust
kts
Height
m
Period
s
Dir
26/11:32pm W 18 28 - - - - - Partly cloudy - 13.3 1009.3 1.4
26/11:30pm W 17 26 - - - - - Partly cloudy - 13.4 1009.3 1.4
26/11:00pm W 17 27 - - - - - Partly cloudy - 12.8 1009.6 1.4
26/10:36pm W 15 25 - - - - - Partly cloudy - 13.4 1009.7 1.4
26/10:30pm W 16 25 - - - - - Partly cloudy - 13.5 1009.7 1.4
26/10:00pm W 15 26 - - - - - Partly cloudy - 13.4 1009.9 1.4
26/09:43pm W 15 25 - - - - - Partly cloudy - 13.4 1009.9 1.4
26/09:30pm W 15 24 - - - - - Partly cloudy - 13.2 1010.0 1.4
26/09:00pm W 14 21 - - - - - Cloudy - 13.2 1009.7 1.4
26/08:35pm WSW 15 25 - - - - - Partly cloudy - 13.2 1009.5 1.4
26/08:30pm WSW 15 25 - - - - - Partly cloudy - 13.1 1009.5 1.4
26/08:00pm WSW 15 28 - - - - - Partly cloudy - 13.2 1009.4 1.4
26/07:39pm WSW 15 25 - - - - - Partly cloudy - 13.6 1009.3 1.4
26/07:30pm WSW 14 25 - - - - - Partly cloudy - 13.4 1009.2 1.4
26/07:09pm WSW 15 26 - - - - - Partly cloudy - 13.3 1009.2 1.4
26/07:00pm WSW 14 26 - - - - - Partly cloudy - 13.6 1009.1 1.4
26/06:30pm WSW 15 26 - - - - - Partly cloudy - 13.8 1009.0 1.4
26/06:00pm SW 18 28 - - - - - Mostly clear - 13.7 1008.9 1.4

Other formats

Comma delimited format used in spreadsheet applications
http://www.bom.gov.au/fwo/IDT60701/IDT60701.95954.axf

JavaScript Object Notation format (JSON) in row-major order
http://www.bom.gov.au/fwo/IDT60701/IDT60701.95954.json

Data quality

Most of these data are generated automatically and are frequently updated. Quality checks on data are not normally performed. It is possible for incorrect values to appear. Refer to information at About Latest Weather Observations and please check the disclaimer before using these data.